This is the latest recevied weather packets stored in our database for station/object KD9ZDW. If no packets are shown the sender has not sent any weather packets the latest 10 day(s).
| Time | Temp. | Humidity | Pressure | Rain* | Wind** | Luminosity | Snow |
|---|---|---|---|---|---|---|---|
| 1777939448 | 21.11° C | 58% | 1003.8 hPa | 0 mm | - | 13 W/m² | - |
| 1777939144 | 21.67° C | 58% | 1003.8 hPa | 0 mm | - | 20 W/m² | - |
| 1777938841 | 21.67° C | 57% | 1003.8 hPa | 0 mm | - | 25 W/m² | - |
| 1777938537 | 21.67° C | 57% | 1004 hPa | 0 mm | - | 28 W/m² | - |
| 1777938235 | 21.67° C | 56% | 1003.8 hPa | 0 mm | - | 29 W/m² | - |
| 1777937932 | 22.22° C | 55% | 1003.6 hPa | 0 mm | - | 35 W/m² | - |
| 1777937627 | 22.22° C | 54% | 1003.9 hPa | 0 mm | - | 42 W/m² | - |
| 1777937324 | 22.22° C | 54% | 1003.8 hPa | 0 mm | - | 47 W/m² | - |
| 1777937021 | 22.22° C | 53% | 1003.9 hPa | 0 mm | - | 59 W/m² | - |
| 1777936718 | 22.22° C | 53% | 1004 hPa | 0 mm | - | 66 W/m² | - |
| 1777936415 | 22.22° C | 53% | 1004 hPa | 0 mm | - | 37 W/m² | - |
| 1777936111 | 22.22° C | 52% | 1003.8 hPa | 0 mm | - | 54 W/m² | - |
| 1777935809 | 22.78° C | 50% | 1004.2 hPa | 0 mm | - | 55 W/m² | - |
| 1777935507 | 22.78° C | 49% | 1004 hPa | 0 mm | - | 56 W/m² | - |
| 1777935203 | 23.33° C | 48% | 1004.4 hPa | 0 mm | - | 65 W/m² | - |
| 1777934901 | 22.78° C | 49% | 1004.4 hPa | 0 mm | - | 102 W/m² | - |
| 1777934598 | 23.33° C | 46% | 1004.3 hPa | 0 mm | - | 118 W/m² | - |
| 1777934294 | 23.33° C | 46% | 1004.3 hPa | 0 mm | - | 86 W/m² | - |
| 1777933990 | 23.33° C | 45% | 1004.8 hPa | 0 mm | - | 54 W/m² | - |
| 1777933687 | 22.78° C | 45% | 1004.4 hPa | 0 mm | - | 62 W/m² | - |
| 1777933383 | 23.33° C | 45% | 1004.5 hPa | 0 mm | - | 70 W/m² | - |
| 1777933082 | 23.89° C | 43% | 1004.5 hPa | 0 mm | - | 79 W/m² | - |
| 1777932778 | 23.89° C | 42% | 1004.8 hPa | 0 mm | - | 78 W/m² | - |
| 1777932475 | 23.89° C | 42% | 1004.3 hPa | 0 mm | - | 202 W/m² | - |
| 1777932172 | 24.44° C | 42% | 1004.3 hPa | 0 mm | - | 192 W/m² | - |
* Rain latest hour (hover to see other rain measurements)
** Current wind speed in m/s (hover to see current wind gust speed)